Time;durP1;ratioP1;P1;durP2;ratioP2;P2;SDS_P1;SDS_P2;PMS_P1;PMS_P2;Temp;Humidity;BMP_temperature;BMP_pressure;BME280_temperature;BME280_humidity;BME280_pressure;Samples;Min_cycle;Max_cycle;Signal;HPM_P1;HPM_P2
2023/08/10 00:00:37;;;;;;;20.65;13.60;;;;;;;12.43;100.00;96294.28;2066544;28;20061;-71
2023/08/10 00:01:39;;;;;;;17.88;14.02;;;;;;;12.46;100.00;96293.31;2066999;28;20065;-70
2023/08/10 00:02:41;;;;;;;17.50;13.63;;;;;;;12.48;100.00;96297.50;2067062;28;20081;-70
2023/08/10 00:03:42;;;;;;;17.10;13.73;;;;;;;12.48;100.00;96294.91;2066328;28;20058;-70
2023/08/10 00:04:43;;;;;;;16.98;12.20;;;;;;;12.48;100.00;96294.03;2067076;28;20077;-70
2023/08/10 00:05:44;;;;;;;14.93;12.60;;;;;;;12.50;100.00;96293.03;2067120;28;20439;-70
2023/08/10 00:06:45;;;;;;;17.17;13.05;;;;;;;12.53;100.00;96303.31;2066826;28;20058;-71
2023/08/10 00:07:46;;;;;;;20.75;14.18;;;;;;;12.54;100.00;96299.81;2067008;28;20065;-70
2023/08/10 00:08:49;;;;;;;16.27;13.40;;;;;;;12.53;100.00;96299.88;2066547;28;20418;-70
2023/08/10 00:09:51;;;;;;;17.88;13.65;;;;;;;12.57;100.00;96294.44;2066544;28;20058;-70
2023/08/10 00:10:52;;;;;;;17.58;13.75;;;;;;;12.60;100.00;96297.81;2066303;28;20406;-70
2023/08/10 00:11:53;;;;;;;17.05;13.00;;;;;;;12.57;100.00;96288.38;2066609;28;20050;-70
2023/08/10 00:12:54;;;;;;;17.13;13.82;;;;;;;12.61;100.00;96304.69;2066363;28;20054;-70
2023/08/10 00:13:55;;;;;;;17.85;12.70;;;;;;;12.61;100.00;96307.31;2066961;28;20054;-70
2023/08/10 00:14:56;;;;;;;16.98;12.55;;;;;;;12.61;100.00;96309.91;2066866;28;20054;-71
2023/08/10 00:15:58;;;;;;;16.40;12.38;;;;;;;12.62;100.00;96302.03;2067025;28;20058;-71
2023/08/10 00:16:59;;;;;;;18.13;12.32;;;;;;;12.64;100.00;96301.94;2066947;28;20053;-71
2023/08/10 00:18:00;;;;;;;14.82;11.73;;;;;;;12.62;100.00;96299.41;2066921;28;20046;-70
2023/08/10 00:19:01;;;;;;;17.10;12.95;;;;;;;12.61;100.00;96302.09;2066862;28;20094;-70
2023/08/10 00:20:10;;;;;;;17.02;12.57;;;;;;;12.63;100.00;96303.69;2066485;28;20050;-70
2023/08/10 00:21:11;;;;;;;16.77;13.02;;;;;;;12.62;100.00;96301.19;2066804;28;20057;-70
2023/08/10 00:22:13;;;;;;;14.15;11.13;;;;;;;12.64;100.00;96291.50;2067055;28;20065;-70
2023/08/10 00:23:14;;;;;;;14.05;10.13;;;;;;;12.65;100.00;96295.81;2066863;28;20054;-70
2023/08/10 00:24:15;;;;;;;14.07;11.75;;;;;;;12.67;100.00;96293.97;2066877;28;20131;-70
2023/08/10 00:25:16;;;;;;;13.43;11.43;;;;;;;12.68;100.00;96296.50;2066482;28;20058;-70
2023/08/10 00:26:18;;;;;;;15.02;12.48;;;;;;;12.70;100.00;96293.81;2066292;28;20062;-70
2023/08/10 00:27:19;;;;;;;14.77;11.85;;;;;;;12.70;100.00;96302.47;2066685;28;20497;-70
2023/08/10 00:28:20;;;;;;;14.38;11.70;;;;;;;12.62;100.00;96293.38;2058187;28;20422;-70
2023/08/10 00:29:21;;;;;;;16.90;11.60;;;;;;;12.69;100.00;96307.75;2057923;28;20062;-69
2023/08/10 00:30:22;;;;;;;14.63;11.75;;;;;;;12.70;100.00;96305.09;2058177;28;20066;-69
2023/08/10 00:31:24;;;;;;;15.45;11.98;;;;;;;12.72;100.00;96303.25;2058130;28;20054;-70
2023/08/10 00:32:25;;;;;;;17.42;10.75;;;;;;;12.74;100.00;96300.56;2058312;28;20537;-70
2023/08/10 00:33:26;;;;;;;14.95;11.70;;;;;;;12.69;100.00;96295.56;2058170;28;20059;-70
2023/08/10 00:34:27;;;;;;;14.50;11.50;;;;;;;12.71;100.00;96298.94;2057548;28;20106;-70
2023/08/10 00:35:28;;;;;;;14.45;11.40;;;;;;;12.74;100.00;96303.16;2057816;28;20054;-70
2023/08/10 00:36:29;;;;;;;15.60;11.82;;;;;;;12.76;100.00;96304.75;2058250;28;20058;-70
2023/08/10 00:37:31;;;;;;;15.98;11.05;;;;;;;12.78;100.00;96302.94;2057457;28;20066;-69
2023/08/10 00:38:37;;;;;;;15.82;11.35;;;;;;;12.79;100.00;96306.38;2065814;28;20058;-70
2023/08/10 00:39:38;;;;;;;15.45;11.00;;;;;;;12.77;100.00;96298.63;2057670;28;20522;-70
2023/08/10 00:40:40;;;;;;;13.88;10.48;;;;;;;12.77;100.00;96303.00;2050168;28;20062;-69
2023/08/10 00:41:41;;;;;;;12.02;10.35;;;;;;;12.73;100.00;96301.47;2049644;29;20067;-69
2023/08/10 00:42:42;;;;;;;12.15;10.38;;;;;;;12.78;100.00;96304.69;2058042;28;20062;-69
2023/08/10 00:43:43;;;;;;;11.55;9.98;;;;;;;12.78;100.00;96302.09;2058289;28;20062;-69
2023/08/10 00:44:44;;;;;;;13.57;9.05;;;;;;;12.78;100.00;96302.09;2057854;28;20078;-69
2023/08/10 00:45:45;;;;;;;11.93;9.27;;;;;;;12.79;100.00;96307.22;2066678;28;20059;-69
2023/08/10 00:46:46;;;;;;;16.25;9.85;;;;;;;12.79;100.00;96303.78;2057838;28;20058;-69
2023/08/10 00:47:47;;;;;;;11.70;9.40;;;;;;;12.80;100.00;96305.44;2058134;28;20070;-69
2023/08/10 00:48:49;;;;;;;14.65;10.00;;;;;;;12.78;100.00;96296.88;2066567;28;20398;-68
2023/08/10 00:49:50;;;;;;;11.18;9.30;;;;;;;12.76;100.00;96291.72;2066353;28;20054;-69
2023/08/10 00:50:51;;;;;;;12.52;9.20;;;;;;;12.70;100.00;96286.00;2066179;28;20061;-69
2023/08/10 00:51:52;;;;;;;10.15;8.63;;;;;;;12.75;100.00;96292.66;2066002;28;20516;-69
2023/08/10 00:52:54;;;;;;;13.07;9.40;;;;;;;12.76;100.00;96294.34;2057621;28;20105;-69
2023/08/10 00:53:55;;;;;;;10.70;8.95;;;;;;;12.77;100.00;96290.81;2042043;29;20052;-69
2023/08/10 00:54:56;;;;;;;12.80;9.60;;;;;;;12.75;100.00;96297.00;2049998;29;20507;-69
2023/08/10 00:55:57;;;;;;;9.70;8.10;;;;;;;12.77;100.00;96301.22;2057715;28;20058;-69
2023/08/10 00:56:58;;;;;;;11.50;8.88;;;;;;;12.77;100.00;96297.78;2058149;28;20054;-69
2023/08/10 00:57:59;;;;;;;11.45;9.07;;;;;;;12.75;100.00;96299.63;2057647;28;20061;-68
2023/08/10 00:59:01;;;;;;;10.13;8.38;;;;;;;12.75;100.00;96304.81;2066145;28;20054;-69
2023/08/10 01:00:05;;;;;;;10.70;8.50;;;;;;;12.70;100.00;96297.28;2066577;28;20471;-68
2023/08/10 01:01:06;;;;;;;10.30;8.63;;;;;;;12.67;100.00;96294.81;2057699;28;20051;-69
2023/08/10 01:02:07;;;;;;;9.98;8.13;;;;;;;12.70;100.00;96305.09;2058196;28;20046;-68
2023/08/10 01:03:09;;;;;;;9.48;8.40;;;;;;;12.72;100.00;96307.59;2058089;28;20050;-68
2023/08/10 01:04:10;;;;;;;11.02;8.75;;;;;;;12.71;100.00;96303.31;2050008;28;20525;-68
2023/08/10 01:05:12;;;;;;;9.30;7.68;;;;;;;12.63;100.00;96298.50;2050083;28;20051;-68
2023/08/10 01:06:16;;;;;;;9.60;8.18;;;;;;;12.71;100.00;96305.91;2049469;28;20058;-68
2023/08/10 01:07:43;;;;;;;10.02;8.02;;;;;;;12.70;100.00;96309.47;2050117;28;20074;-68
2023/08/10 01:09:11;;;;;;;9.80;8.05;;;;;;;12.69;100.00;96299.94;2053196;28;20415;-68
2023/08/10 01:10:30;;;;;;;11.15;8.27;;;;;;;12.67;100.00;96301.78;2045628;29;20427;-69
2023/08/10 01:11:39;;;;;;;11.75;8.23;;;;;;;12.65;100.00;96304.47;2048130;28;20567;-68
2023/08/10 01:13:18;;;;;;;10.73;8.23;;;;;;;12.65;100.00;96301.03;2045018;29;20055;-68
2023/08/10 01:14:25;;;;;;;10.45;7.93;;;;;;;12.57;100.00;96289.22;2021221;29;20061;-69
2023/08/10 01:15:35;;;;;;;10.23;8.27;;;;;;;12.63;100.00;96301.09;2039783;29;20070;-69
2023/08/10 01:16:38;;;;;;;8.65;7.43;;;;;;;12.61;100.00;96302.09;2052961;28;20056;-68
2023/08/10 01:17:40;;;;;;;10.60;8.60;;;;;;;12.65;100.00;96301.88;2065991;28;20054;-69
2023/08/10 01:18:41;;;;;;;10.57;8.30;;;;;;;12.65;100.00;96303.63;2049746;29;20066;-68
2023/08/10 01:19:42;;;;;;;10.30;8.25;;;;;;;12.61;100.00;96295.13;2041686;29;20056;-68
2023/08/10 01:20:43;;;;;;;11.63;8.77;;;;;;;12.69;100.00;96306.00;2041797;29;20095;-68
2023/08/10 01:21:50;;;;;;;9.98;8.85;;;;;;;12.71;100.00;96313.75;2049965;28;20051;-69
2023/08/10 01:23:03;;;;;;;10.30;8.30;;;;;;;12.71;100.00;96305.91;2050703;28;20066;-69
2023/08/10 01:24:10;;;;;;;10.85;8.68;;;;;;;12.65;100.00;96299.25;2043370;29;20058;-68
2023/08/10 01:25:11;;;;;;;12.23;8.98;;;;;;;12.72;100.00;96310.19;2050425;28;20135;-69
2023/08/10 01:26:12;;;;;;;12.05;8.48;;;;;;;12.68;100.00;96322.56;2049681;29;20059;-68
2023/08/10 01:27:13;;;;;;;14.38;8.65;;;;;;;12.70;100.00;96310.28;2049836;29;20062;-68
2023/08/10 01:28:15;;;;;;;9.27;7.70;;;;;;;12.67;100.00;96306.97;2041973;29;20048;-68
2023/08/10 01:29:16;;;;;;;9.15;8.15;;;;;;;12.72;100.00;96307.59;2049660;28;20043;-68
2023/08/10 01:30:17;;;;;;;10.85;8.18;;;;;;;12.69;100.00;96308.59;2057992;28;20474;-68
2023/08/10 01:31:18;;;;;;;9.48;7.95;;;;;;;12.74;100.00;96314.41;2041697;29;20064;-68
2023/08/10 01:32:20;;;;;;;11.43;8.52;;;;;;;12.76;100.00;96319.56;2049816;29;20055;-68
2023/08/10 01:33:21;;;;;;;15.63;9.05;;;;;;;12.77;100.00;96318.63;2066333;28;20061;-67
2023/08/10 01:34:22;;;;;;;11.48;8.43;;;;;;;12.72;100.00;96312.81;2065883;28;20069;-68
2023/08/10 01:35:24;;;;;;;9.68;8.25;;;;;;;12.73;100.00;96322.34;2057796;28;20063;-68
2023/08/10 01:36:26;;;;;;;10.35;8.63;;;;;;;12.70;100.00;96320.72;2057996;28;20522;-68
2023/08/10 01:37:27;;;;;;;9.98;8.32;;;;;;;12.73;100.00;96324.94;2057882;28;20055;-68
2023/08/10 01:38:28;;;;;;;14.18;8.65;;;;;;;12.73;100.00;96323.16;2057456;28;20065;-67
2023/08/10 01:39:32;;;;;;;10.20;8.73;;;;;;;12.70;100.00;96325.09;2065580;28;20406;-67
2023/08/10 01:40:33;;;;;;;8.07;7.20;;;;;;;12.75;100.00;96321.34;2066328;28;20058;-68
2023/08/10 01:41:35;;;;;;;9.07;8.00;;;;;;;12.75;100.00;96318.72;2057668;28;20510;-68
2023/08/10 01:42:36;;;;;;;11.40;8.75;;;;;;;12.76;100.00;96330.81;2057733;28;20062;-68
2023/08/10 01:43:37;;;;;;;12.15;8.80;;;;;;;12.77;100.00;96326.44;2065790;28;20054;-68
2023/08/10 01:44:38;;;;;;;12.55;8.60;;;;;;;12.78;100.00;96322.94;2065510;28;20512;-68
2023/08/10 01:45:44;;;;;;;10.00;7.72;;;;;;;12.70;100.00;96317.28;2066011;28;20066;-67
2023/08/10 01:46:45;;;;;;;10.50;7.93;;;;;;;12.68;100.00;96312.13;2041720;29;20054;-68
2023/08/10 01:48:08;;;;;;;11.02;8.25;;;;;;;12.76;100.00;96336.03;2034016;29;20064;-67
2023/08/10 01:49:10;;;;;;;11.10;8.70;;;;;;;12.74;100.00;96326.59;2060428;28;20077;-67
2023/08/10 01:50:11;;;;;;;10.10;8.55;;;;;;;12.77;100.00;96331.66;2064946;28;20506;-66
2023/08/10 01:51:12;;;;;;;11.95;7.82;;;;;;;12.74;100.00;96334.44;2057541;28;20051;-67
2023/08/10 01:52:13;;;;;;;9.90;7.47;;;;;;;12.75;100.00;96329.16;2049531;28;20047;-67
2023/08/10 01:53:15;;;;;;;8.68;6.75;;;;;;;12.72;100.00;96328.44;2041758;29;20504;-67
2023/08/10 01:54:16;;;;;;;7.95;7.00;;;;;;;12.76;100.00;96335.19;2041658;28;20047;-66
2023/08/10 01:55:19;;;;;;;9.82;7.35;;;;;;;12.75;100.00;96339.56;2057679;28;20089;-66
2023/08/10 01:56:21;;;;;;;7.93;7.13;;;;;;;12.74;100.00;96331.81;2057117;28;20065;-66
2023/08/10 01:57:22;;;;;;;9.90;7.55;;;;;;;12.75;100.00;96336.09;2049650;28;20059;-67
2023/08/10 01:58:23;;;;;;;6.53;5.57;;;;;;;12.74;100.00;96340.47;2049460;29;20424;-67
2023/08/10 01:59:24;;;;;;;7.68;6.30;;;;;;;12.72;100.00;96331.91;2049150;28;20062;-67
2023/08/10 02:00:25;;;;;;;7.20;6.22;;;;;;;12.74;100.00;96334.44;2065331;28;20434;-67
2023/08/10 02:01:26;;;;;;;7.05;6.15;;;;;;;12.72;100.00;96325.84;2056776;28;20061;-67
2023/08/10 02:02:28;;;;;;;7.90;7.10;;;;;;;12.76;100.00;96332.59;2057581;28;20069;-67
2023/08/10 02:03:29;;;;;;;9.85;7.10;;;;;;;12.73;100.00;96333.59;2057526;28;20487;-67
2023/08/10 02:04:30;;;;;;;7.78;6.43;;;;;;;12.75;100.00;96334.38;2057613;28;20054;-67
2023/08/10 02:05:31;;;;;;;7.78;6.70;;;;;;;12.76;100.00;96327.38;2056979;28;20051;-67
2023/08/10 02:06:38;;;;;;;7.93;7.10;;;;;;;12.72;100.00;96325.84;2057418;28;20055;-67
2023/08/10 02:07:41;;;;;;;8.57;6.97;;;;;;;12.64;100.00;96309.75;2058288;28;20114;-67
2023/08/10 02:08:42;;;;;;;7.80;6.68;;;;;;;12.73;100.00;96319.72;2065665;28;20061;-67
2023/08/10 02:09:44;;;;;;;8.52;7.30;;;;;;;12.67;100.00;96320.88;2057475;28;20058;-67
2023/08/10 02:10:45;;;;;;;8.75;7.22;;;;;;;12.73;100.00;96327.53;2057309;28;20442;-66
2023/08/10 02:11:46;;;;;;;8.55;7.60;;;;;;;12.72;100.00;96325.84;2065152;28;20054;-67
2023/08/10 02:12:47;;;;;;;8.50;7.30;;;;;;;12.77;100.00;96326.44;2065632;28;20058;-67
2023/08/10 02:13:50;;;;;;;9.80;7.85;;;;;;;12.79;100.00;96319.41;2057617;28;20062;-66
2023/08/10 02:14:51;;;;;;;9.68;8.52;;;;;;;12.80;100.00;96321.94;2049321;28;20047;-66
2023/08/10 02:15:52;;;;;;;11.20;8.88;;;;;;;12.80;100.00;96323.69;2056802;28;20059;-67
2023/08/10 02:16:54;;;;;;;10.05;8.15;;;;;;;12.78;100.00;96321.19;2065587;28;20058;-67
2023/08/10 02:17:55;;;;;;;13.82;9.00;;;;;;;12.82;100.00;96323.63;2065653;28;20046;-67
2023/08/10 02:18:56;;;;;;;11.02;8.98;;;;;;;12.81;100.00;96314.97;2057068;28;20065;-66
2023/08/10 02:19:57;;;;;;;10.98;9.18;;;;;;;12.80;100.00;96321.94;2056601;28;20098;-67
2023/08/10 02:21:00;;;;;;;11.57;8.88;;;;;;;12.78;100.00;96317.72;2066163;28;20053;-67
2023/08/10 02:22:02;;;;;;;12.52;10.20;;;;;;;12.81;100.00;96325.38;2057496;28;20047;-67
2023/08/10 02:23:03;;;;;;;11.82;10.05;;;;;;;12.81;100.00;96317.56;2056266;28;20054;-67
2023/08/10 02:24:04;;;;;;;11.60;9.93;;;;;;;12.80;100.00;96321.94;2057312;28;20538;-67
2023/08/10 02:25:05;;;;;;;12.38;10.82;;;;;;;12.75;100.00;96317.84;2057562;28;20038;-67
2023/08/10 02:26:07;;;;;;;12.25;9.95;;;;;;;12.78;100.00;96320.34;2065955;28;20042;-67
2023/08/10 02:27:08;;;;;;;13.63;10.70;;;;;;;12.78;100.00;96312.53;2057315;28;20051;-67
2023/08/10 02:28:09;;;;;;;14.85;11.70;;;;;;;12.78;100.00;96315.97;2057582;28;20070;-67
2023/08/10 02:29:10;;;;;;;17.05;12.73;;;;;;;12.80;100.00;96321.94;2057198;28;20061;-66
2023/08/10 02:30:12;;;;;;;13.05;11.63;;;;;;;12.82;100.00;96323.63;2049247;29;20055;-67
2023/08/10 02:31:13;;;;;;;14.27;11.30;;;;;;;12.73;100.00;96310.13;2057334;28;20514;-67
2023/08/10 02:32:16;;;;;;;13.82;12.32;;;;;;;12.80;100.00;96327.16;2057196;28;20046;-67
2023/08/10 02:33:18;;;;;;;13.52;11.07;;;;;;;12.79;100.00;96324.63;2057792;28;20458;-67
2023/08/10 02:34:20;;;;;;;16.02;11.95;;;;;;;12.84;100.00;96321.78;2065355;28;20059;-67
2023/08/10 02:35:21;;;;;;;15.30;12.20;;;;;;;12.73;100.00;96322.34;2065393;28;20058;-66
2023/08/10 02:36:22;;;;;;;14.73;12.75;;;;;;;12.76;100.00;96324.78;2065941;28;20046;-66
2023/08/10 02:37:23;;;;;;;15.35;12.40;;;;;;;12.79;100.00;96327.22;2065818;28;20062;-66
2023/08/10 02:38:25;;;;;;;17.15;12.40;;;;;;;12.85;100.00;96324.28;2056892;28;20428;-66
2023/08/10 02:39:27;;;;;;;15.35;11.32;;;;;;;12.88;100.00;96329.34;2057229;28;20395;-66
2023/08/10 02:40:28;;;;;;;14.65;11.15;;;;;;;12.88;100.00;96329.34;2066150;28;20069;-66
2023/08/10 02:41:29;;;;;;;17.35;12.77;;;;;;;12.89;100.00;96325.00;2065511;28;20070;-66
2023/08/10 02:42:30;;;;;;;16.48;13.35;;;;;;;12.87;100.00;96327.66;2065824;28;20053;-66
2023/08/10 02:43:31;;;;;;;16.95;11.85;;;;;;;12.87;100.00;96338.09;2057383;28;20059;-65
2023/08/10 02:44:32;;;;;;;16.60;13.85;;;;;;;12.81;100.00;96325.38;2056083;28;20051;-66
2023/08/10 02:45:33;;;;;;;17.23;13.07;;;;;;;12.88;100.00;96334.56;2065449;28;20062;-66
2023/08/10 02:46:34;;;;;;;18.45;13.35;;;;;;;12.83;100.00;96331.38;2057033;28;20058;-66
2023/08/10 02:47:35;;;;;;;16.08;12.32;;;;;;;12.83;100.00;96336.59;2057307;28;20388;-66
2023/08/10 02:48:37;;;;;;;17.00;14.05;;;;;;;12.84;100.00;96340.03;2057176;28;20066;-66
2023/08/10 02:49:38;;;;;;;17.23;14.05;;;;;;;12.81;100.00;96328.00;2056899;28;20059;-66
2023/08/10 02:50:39;;;;;;;16.33;13.75;;;;;;;12.79;100.00;96335.03;2065213;28;20050;-67
2023/08/10 02:51:40;;;;;;;17.80;14.70;;;;;;;12.80;100.00;96336.72;2066127;28;20459;-66
2023/08/10 02:52:42;;;;;;;17.27;14.38;;;;;;;12.74;100.00;96337.88;2065471;28;20054;-66
2023/08/10 02:53:43;;;;;;;17.67;14.02;;;;;;;12.70;100.00;96327.69;2056756;28;20057;-66
2023/08/10 02:54:44;;;;;;;17.25;14.52;;;;;;;12.78;100.00;96336.81;2056984;28;20403;-66
2023/08/10 02:55:45;;;;;;;17.23;14.48;;;;;;;12.72;100.00;96323.22;2057325;28;20062;-66
2023/08/10 02:56:47;;;;;;;18.52;15.18;;;;;;;12.81;100.00;96338.41;2048913;29;20066;-66
2023/08/10 02:57:48;;;;;;;17.48;13.15;;;;;;;12.84;100.00;96340.03;2057098;28;20058;-66
2023/08/10 02:58:49;;;;;;;17.70;12.50;;;;;;;12.83;100.00;96339.19;2065735;28;20058;-66
2023/08/10 02:59:50;;;;;;;22.55;15.52;;;;;;;12.83;100.00;96331.38;2056842;28;20573;-66
2023/08/10 03:00:51;;;;;;;17.85;14.65;;;;;;;12.78;100.00;96328.16;2057181;28;20110;-65
2023/08/10 03:01:52;;;;;;;17.65;14.13;;;;;;;12.80;100.00;96334.09;2065586;28;20058;-67
2023/08/10 03:02:53;;;;;;;17.67;14.88;;;;;;;12.77;100.00;96331.66;2057042;28;20442;-66
2023/08/10 03:03:55;;;;;;;17.83;14.90;;;;;;;12.75;100.00;96333.50;2057313;28;20046;-66
2023/08/10 03:04:56;;;;;;;15.63;13.10;;;;;;;12.78;100.00;96334.19;2065391;28;20054;-65
2023/08/10 03:05:57;;;;;;;19.00;13.95;;;;;;;12.77;100.00;96334.28;2065656;28;20058;-66
2023/08/10 03:06:58;;;;;;;16.65;14.38;;;;;;;12.79;100.00;96340.25;2065810;28;20479;-66
2023/08/10 03:07:59;;;;;;;17.50;14.77;;;;;;;12.79;100.00;96333.28;2065863;28;20054;-65
2023/08/10 03:09:02;;;;;;;19.10;13.45;;;;;;;12.76;100.00;96337.81;2056989;28;20054;-66
2023/08/10 03:10:04;;;;;;;19.98;14.43;;;;;;;12.76;100.00;96337.81;2056305;28;20423;-66
2023/08/10 03:11:08;;;;;;;16.15;13.27;;;;;;;12.71;100.00;96337.19;2057465;28;20050;-66
2023/08/10 03:12:09;;;;;;;16.75;12.45;;;;;;;12.70;100.00;96330.31;2056370;28;20055;-66
2023/08/10 03:13:10;;;;;;;16.00;13.02;;;;;;;12.69;100.00;96337.25;2048732;29;20047;-65
2023/08/10 03:14:11;;;;;;;17.60;13.93;;;;;;;12.68;100.00;96335.56;2049102;29;20514;-65
2023/08/10 03:15:12;;;;;;;15.77;12.60;;;;;;;12.67;100.00;96335.66;2049096;28;20063;-65
2023/08/10 03:16:14;;;;;;;15.18;12.48;;;;;;;12.65;100.00;96333.13;2056915;28;20047;-66
2023/08/10 03:17:15;;;;;;;13.68;11.98;;;;;;;12.62;100.00;96335.06;2056989;28;20050;-65
2023/08/10 03:18:16;;;;;;;14.60;12.10;;;;;;;12.64;100.00;96338.41;2057084;28;20468;-64
2023/08/10 03:19:18;;;;;;;14.27;11.65;;;;;;;12.63;100.00;96337.56;2057137;28;20076;-65
2023/08/10 03:20:21;;;;;;;14.30;12.43;;;;;;;12.60;100.00;96336.88;2049058;28;20062;-65
2023/08/10 03:21:22;;;;;;;13.85;12.07;;;;;;;12.56;100.00;96337.03;2057104;28;20617;-64
2023/08/10 03:22:26;;;;;;;16.23;13.02;;;;;;;12.57;100.00;96341.31;2057077;28;20055;-65
2023/08/10 03:23:27;;;;;;;14.15;12.65;;;;;;;12.52;100.00;96340.72;2057202;28;20067;-65
2023/08/10 03:24:28;;;;;;;14.35;12.38;;;;;;;12.50;100.00;96342.53;2056999;28;20147;-65
2023/08/10 03:25:29;;;;;;;15.07;12.05;;;;;;;12.50;100.00;96341.69;2057130;28;20050;-65
2023/08/10 03:26:31;;;;;;;16.92;12.93;;;;;;;12.49;100.00;96345.25;2064972;28;20066;-65
2023/08/10 03:27:32;;;;;;;16.27;13.20;;;;;;;12.46;100.00;96335.81;2057239;28;20499;-65
2023/08/10 03:28:33;;;;;;;15.40;13.00;;;;;;;12.39;100.00;96329.22;2048940;29;20062;-65
2023/08/10 03:29:35;;;;;;;15.80;11.95;;;;;;;12.41;100.00;96334.34;2056906;28;20058;-65
2023/08/10 03:30:36;;;;;;;14.35;12.00;;;;;;;12.37;100.00;96338.84;2064787;28;20050;-65
2023/08/10 03:31:38;;;;;;;13.88;11.25;;;;;;;12.39;100.00;96337.03;2064979;28;20058;-65
2023/08/10 03:32:41;;;;;;;12.55;11.20;;;;;;;12.38;100.00;96331.91;2056877;28;20428;-65
2023/08/10 03:33:42;;;;;;;13.15;10.95;;;;;;;12.36;100.00;96337.19;2056746;28;20113;-65
2023/08/10 03:34:43;;;;;;;11.30;9.98;;;;;;;12.33;100.00;96340.78;2058658;28;20054;-65
2023/08/10 03:35:46;;;;;;;13.23;10.60;;;;;;;12.33;100.00;96334.72;2050701;28;20427;-65
2023/08/10 03:36:47;;;;;;;12.50;10.98;;;;;;;12.34;100.00;96339.84;2058714;28;20054;-65
2023/08/10 03:37:48;;;;;;;13.05;11.65;;;;;;;12.34;100.00;96333.78;2050527;28;20503;-65
2023/08/10 03:38:50;;;;;;;14.20;12.00;;;;;;;12.36;100.00;96342.38;2058254;28;20051;-65
2023/08/10 03:39:51;;;;;;;14.02;11.30;;;;;;;12.34;100.00;96339.84;2057933;28;20050;-65
2023/08/10 03:40:52;;;;;;;14.30;11.73;;;;;;;12.33;100.00;96347.75;2058440;28;20058;-65
2023/08/10 03:41:53;;;;;;;13.13;11.68;;;;;;;12.28;100.00;96334.94;2066518;28;20058;-65
2023/08/10 03:42:54;;;;;;;13.32;11.45;;;;;;;12.24;100.00;96332.56;2057492;28;20054;-65
2023/08/10 03:43:56;;;;;;;13.88;11.82;;;;;;;12.31;100.00;96349.56;2050325;29;20058;-64
2023/08/10 03:44:58;;;;;;;12.65;10.60;;;;;;;12.30;100.00;96346.13;2058238;28;20066;-64
2023/08/10 03:46:02;;;;;;;11.75;10.32;;;;;;;12.27;100.00;96348.03;2067289;28;20050;-64
2023/08/10 03:47:04;;;;;;;12.98;9.60;;;;;;;12.30;100.00;96347.91;2065930;28;20050;-64
2023/08/10 03:48:06;;;;;;;10.65;9.43;;;;;;;12.26;100.00;96330.72;2057900;28;20050;-64
2023/08/10 03:49:07;;;;;;;13.68;10.88;;;;;;;12.34;100.00;96359.84;2058461;28;20479;-64
2023/08/10 03:50:08;;;;;;;12.13;10.65;;;;;;;12.29;100.00;96351.41;2058474;28;20070;-64
2023/08/10 03:51:09;;;;;;;12.27;10.85;;;;;;;12.38;100.00;96358.78;2058400;28;20050;-64
2023/08/10 03:52:11;;;;;;;11.90;9.73;;;;;;;12.40;100.00;96361.28;2065725;28;20075;-64
2023/08/10 03:53:12;;;;;;;11.93;9.23;;;;;;;12.40;100.00;96364.75;2067012;28;20490;-64
2023/08/10 03:54:13;;;;;;;9.07;7.40;;;;;;;12.42;100.00;96357.69;2058461;28;20058;-64
2023/08/10 03:55:14;;;;;;;10.23;7.78;;;;;;;12.41;100.00;96371.66;2058621;28;20065;-63
2023/08/10 03:56:15;;;;;;;10.27;7.95;;;;;;;12.37;100.00;96362.28;2057437;28;20077;-64
2023/08/10 03:57:16;;;;;;;9.85;8.10;;;;;;;12.35;100.00;96364.16;2058415;28;20050;-65
2023/08/10 03:58:19;;;;;;;10.55;8.77;;;;;;;12.36;100.00;96364.06;2058003;28;20459;-64
2023/08/10 03:59:20;;;;;;;9.32;7.53;;;;;;;12.38;100.00;96365.75;2058518;28;20050;-64
2023/08/10 04:00:25;;;;;;;9.65;7.97;;;;;;;12.34;100.00;96367.66;2058244;28;20412;-64
2023/08/10 04:01:27;;;;;;;14.00;8.93;;;;;;;12.34;100.00;96368.47;2058599;28;20062;-64
2023/08/10 04:02:28;;;;;;;8.52;7.53;;;;;;;12.32;100.00;96367.75;2067133;28;20050;-64
2023/08/10 04:03:29;;;;;;;9.52;8.10;;;;;;;12.29;100.00;96359.22;2066744;28;20081;-64
2023/08/10 04:04:30;;;;;;;9.50;8.50;;;;;;;12.31;100.00;96362.59;2066747;28;20050;-64
2023/08/10 04:05:31;;;;;;;10.48;9.35;;;;;;;12.27;100.00;96369.72;2058131;28;20050;-64
2023/08/10 04:06:32;;;;;;;15.13;9.68;;;;;;;12.26;100.00;96373.22;2058303;28;20050;-64
2023/08/10 04:07:34;;;;;;;12.43;10.05;;;;;;;12.25;100.00;96370.72;2066465;28;20084;-63
2023/08/10 04:08:35;;;;;;;12.80;11.02;;;;;;;12.22;100.00;96366.50;2058318;28;20059;-64
2023/08/10 04:09:36;;;;;;;12.10;9.95;;;;;;;12.21;100.00;96369.16;2050090;29;20058;-64
2023/08/10 04:10:37;;;;;;;12.20;10.85;;;;;;;12.18;100.00;96364.09;2058468;28;20058;-64
2023/08/10 04:11:38;;;;;;;13.18;11.43;;;;;;;12.22;100.00;96368.25;2066804;28;20054;-64
2023/08/10 04:12:40;;;;;;;14.68;11.75;;;;;;;12.23;100.00;96372.53;2057894;28;20059;-64
2023/08/10 04:13:41;;;;;;;12.05;9.90;;;;;;;12.21;100.00;96366.56;2058150;28;20070;-63
2023/08/10 04:14:42;;;;;;;12.98;10.50;;;;;;;12.25;100.00;96376.75;2066827;28;20057;-63
2023/08/10 04:15:43;;;;;;;14.18;11.60;;;;;;;12.33;100.00;96369.41;2066860;28;20494;-64
2023/08/10 04:16:44;;;;;;;10.93;9.48;;;;;;;12.42;100.00;96368.13;2066628;28;20058;-64
2023/08/10 04:17:45;;;;;;;9.32;8.00;;;;;;;12.50;100.00;96373.78;2058248;28;20062;-64
2023/08/10 04:18:47;;;;;;;9.73;8.48;;;;;;;12.61;100.00;96372.44;2058153;28;20063;-64
2023/08/10 04:19:48;;;;;;;8.35;7.05;;;;;;;12.65;100.00;96371.38;2057968;28;20078;-62
2023/08/10 04:20:49;;;;;;;7.78;6.93;;;;;;;12.84;100.00;96366.94;2058164;28;20112;-63
2023/08/10 04:21:50;;;;;;;7.13;6.30;;;;;;;12.97;100.00;96365.38;2066663;28;20521;-63
2023/08/10 04:22:52;;;;;;;7.60;6.43;;;;;;;13.06;100.00;96371.06;2066939;28;20058;-63
2023/08/10 04:23:53;;;;;;;6.45;5.75;;;;;;;13.07;100.00;96377.94;2058183;28;20047;-63
2023/08/10 04:24:54;;;;;;;7.45;6.30;;;;;;;13.13;100.00;96372.44;2058050;28;20406;-63
2023/08/10 04:25:56;;;;;;;5.78;5.07;;;;;;;13.17;100.00;96371.34;2066599;28;20050;-62
2023/08/10 04:26:57;;;;;;;7.35;5.85;;;;;;;13.20;100.00;96377.25;2066893;28;20507;-62
2023/08/10 04:27:58;;;;;;;6.78;5.78;;;;;;;13.25;99.75;96375.22;2066818;28;20045;-63
2023/08/10 04:29:00;;;;;;;7.00;4.97;;;;;;;13.36;99.28;96377.31;2057793;28;20053;-62
2023/08/10 04:30:03;;;;;;;8.13;5.38;;;;;;;13.41;98.53;96380.53;2058292;28;20055;-62
2023/08/10 04:31:04;;;;;;;12.00;5.53;;;;;;;13.38;96.52;96377.25;2066641;28;20061;-62
2023/08/10 04:32:05;;;;;;;7.75;6.20;;;;;;;13.23;96.06;96371.00;2066656;28;20378;-62
2023/08/10 04:33:06;;;;;;;9.77;7.18;;;;;;;13.14;96.88;96377.56;2066718;28;20057;-62
2023/08/10 04:34:08;;;;;;;12.85;7.07;;;;;;;13.07;97.02;96384.03;2066026;28;20494;-62
2023/08/10 04:35:09;;;;;;;10.82;7.18;;;;;;;12.98;97.79;96387.91;2057519;28;20047;-63
2023/08/10 04:36:10;;;;;;;10.10;7.85;;;;;;;12.97;98.14;96388.00;2058135;28;20050;-62
2023/08/10 04:37:12;;;;;;;8.43;7.53;;;;;;;12.92;98.32;96383.03;2057402;28;20475;-62
2023/08/10 04:38:13;;;;;;;10.40;7.85;;;;;;;12.90;98.93;96384.84;2058180;28;20050;-62
2023/08/10 04:39:14;;;;;;;9.93;8.10;;;;;;;12.89;99.55;96380.56;2066804;28;20054;-62
2023/08/10 04:40:15;;;;;;;10.13;8.65;;;;;;;13.04;100.00;96389.38;2066759;28;20042;-62
2023/08/10 04:41:16;;;;;;;9.90;8.30;;;;;;;13.19;100.00;96388.59;2066764;28;20375;-62
2023/08/10 04:42:18;;;;;;;10.27;8.82;;;;;;;13.28;100.00;96389.91;2066360;28;20058;-62
2023/08/10 04:43:19;;;;;;;10.48;8.43;;;;;;;13.30;100.00;96385.47;2065777;28;20046;-62
2023/08/10 04:44:20;;;;;;;9.27;8.13;;;;;;;13.28;99.99;96387.31;2065908;28;20061;-62